sensor_id;sensor_type;location;lat;lon;timestamp;pressure;altitude;pressure_sealevel;temperature
40245;BMP280;25963;42.694;23.600;2024-03-07T00:00:27;95017.47;;;7.19
40245;BMP280;25963;42.694;23.600;2024-03-07T00:02:53;95014.06;;;7.18
40245;BMP280;25963;42.694;23.600;2024-03-07T00:05:20;95015.53;;;7.19
40245;BMP280;25963;42.694;23.600;2024-03-07T00:07:46;95009.66;;;7.15
40245;BMP280;25963;42.694;23.600;2024-03-07T00:10:12;95006.28;;;7.15
40245;BMP280;25963;42.694;23.600;2024-03-07T00:12:39;95009.56;;;7.10
40245;BMP280;25963;42.694;23.600;2024-03-07T00:15:10;94979.91;;;6.88
40245;BMP280;25963;42.694;23.600;2024-03-07T00:17:36;94998.94;;;7.10
40245;BMP280;25963;42.694;23.600;2024-03-07T00:20:02;95017.91;;;7.17
40245;BMP280;25963;42.694;23.600;2024-03-07T00:22:37;95000.13;;;7.09
40245;BMP280;25963;42.694;23.600;2024-03-07T00:25:03;95011.31;;;7.13
40245;BMP280;25963;42.694;23.600;2024-03-07T00:27:31;94992.75;;;7.04
40245;BMP280;25963;42.694;23.600;2024-03-07T00:29:56;95011.47;;;7.09
40245;BMP280;25963;42.694;23.600;2024-03-07T00:32:23;95009.28;;;7.08
40245;BMP280;25963;42.694;23.600;2024-03-07T00:34:49;95016.50;;;7.07
40245;BMP280;25963;42.694;23.600;2024-03-07T00:37:15;95012.81;;;7.05
40245;BMP280;25963;42.694;23.600;2024-03-07T00:39:41;94997.25;;;6.98
40245;BMP280;25963;42.694;23.600;2024-03-07T00:42:07;95007.25;;;7.03
40245;BMP280;25963;42.694;23.600;2024-03-07T00:44:32;95011.19;;;7.07
40245;BMP280;25963;42.694;23.600;2024-03-07T00:46:58;95012.94;;;7.10
40245;BMP280;25963;42.694;23.600;2024-03-07T00:49:23;95012.34;;;7.06
40245;BMP280;25963;42.694;23.600;2024-03-07T00:51:49;95011.19;;;7.07
40245;BMP280;25963;42.694;23.600;2024-03-07T00:54:15;94994.72;;;7.03
40245;BMP280;25963;42.694;23.600;2024-03-07T00:56:40;94905.03;;;6.36
40245;BMP280;25963;42.694;23.600;2024-03-07T00:59:05;95004.13;;;7.04
40245;BMP280;25963;42.694;23.600;2024-03-07T01:01:31;95008.66;;;7.13
40245;BMP280;25963;42.694;23.600;2024-03-07T01:03:59;94992.75;;;7.04
40245;BMP280;25963;42.694;23.600;2024-03-07T01:06:25;95003.81;;;7.11
40245;BMP280;25963;42.694;23.600;2024-03-07T01:08:50;94973.38;;;6.98
40245;BMP280;25963;42.694;23.600;2024-03-07T01:11:17;94997.59;;;7.14
40245;BMP280;25963;42.694;23.600;2024-03-07T01:13:43;94889.97;;;6.42
40245;BMP280;25963;42.694;23.600;2024-03-07T01:16:08;94974.97;;;6.95
40245;BMP280;25963;42.694;23.600;2024-03-07T01:18:34;95000.13;;;7.09
40245;BMP280;25963;42.694;23.600;2024-03-07T01:21:00;94992.59;;;7.07
40245;BMP280;25963;42.694;23.600;2024-03-07T01:23:26;94981.91;;;6.93
40245;BMP280;25963;42.694;23.600;2024-03-07T01:25:55;94991.34;;;7.03
40245;BMP280;25963;42.694;23.600;2024-03-07T01:28:21;94973.72;;;6.91
40245;BMP280;25963;42.694;23.600;2024-03-07T01:30:47;94924.41;;;6.51
40245;BMP280;25963;42.694;23.600;2024-03-07T01:33:13;94998.56;;;7.02
40245;BMP280;25963;42.694;23.600;2024-03-07T01:35:38;94981.91;;;6.93
40245;BMP280;25963;42.694;23.600;2024-03-07T01:38:03;94990.19;;;6.95
40245;BMP280;25963;42.694;23.600;2024-03-07T01:40:29;94995.19;;;6.93
40245;BMP280;25963;42.694;23.600;2024-03-07T01:42:54;94992.28;;;6.91
40245;BMP280;25963;42.694;23.600;2024-03-07T01:45:20;94992.16;;;6.85
40245;BMP280;25963;42.694;23.600;2024-03-07T01:47:45;94981.81;;;6.87
40245;BMP280;25963;42.694;23.600;2024-03-07T01:50:11;94966.75;;;6.70
40245;BMP280;25963;42.694;23.600;2024-03-07T01:52:40;94964.09;;;6.70
40245;BMP280;25963;42.694;23.600;2024-03-07T01:55:07;94913.59;;;6.31
40245;BMP280;25963;42.694;23.600;2024-03-07T01:57:32;94985.72;;;6.77
40245;BMP280;25963;42.694;23.600;2024-03-07T01:59:59;94988.97;;;6.72
40245;BMP280;25963;42.694;23.600;2024-03-07T02:02:25;94965.25;;;6.69
40245;BMP280;25963;42.694;23.600;2024-03-07T02:04:51;94973.94;;;6.69
40245;BMP280;25963;42.694;23.600;2024-03-07T02:07:16;94968.25;;;6.62
40245;BMP280;25963;42.694;23.600;2024-03-07T02:09:42;94981.81;;;6.64
40245;BMP280;25963;42.694;23.600;2024-03-07T02:12:07;94974.31;;;6.62
40245;BMP280;25963;42.694;23.600;2024-03-07T02:14:34;94978.88;;;6.62
40245;BMP280;25963;42.694;23.600;2024-03-07T02:16:59;94971.53;;;6.57
40245;BMP280;25963;42.694;23.600;2024-03-07T02:19:25;94958.91;;;6.42
40245;BMP280;25963;42.694;23.600;2024-03-07T02:21:51;94979.16;;;6.54
40245;BMP280;25963;42.694;23.600;2024-03-07T02:24:16;94968.31;;;6.43
40245;BMP280;25963;42.694;23.600;2024-03-07T02:26:42;94966.84;;;6.42
40245;BMP280;25963;42.694;23.600;2024-03-07T02:29:07;94971.41;;;6.42
40245;BMP280;25963;42.694;23.600;2024-03-07T02:31:33;94981.88;;;6.45
40245;BMP280;25963;42.694;23.600;2024-03-07T02:34:03;95004.50;;;6.56
40245;BMP280;25963;42.694;23.600;2024-03-07T02:36:28;94948.97;;;6.19
40245;BMP280;25963;42.694;23.600;2024-03-07T02:38:54;95009.66;;;6.59
40245;BMP280;25963;42.694;23.600;2024-03-07T02:41:20;95020.09;;;6.63
40245;BMP280;25963;42.694;23.600;2024-03-07T02:43:46;95034.38;;;6.65
40245;BMP280;25963;42.694;23.600;2024-03-07T02:46:11;95033.78;;;6.70
40245;BMP280;25963;42.694;23.600;2024-03-07T02:48:37;95043.66;;;6.70
40245;BMP280;25963;42.694;23.600;2024-03-07T02:51:04;95041.63;;;6.65
40245;BMP280;25963;42.694;23.600;2024-03-07T02:53:31;95031.16;;;6.61
40245;BMP280;25963;42.694;23.600;2024-03-07T02:55:57;95028.09;;;6.53
40245;BMP280;25963;42.694;23.600;2024-03-07T02:58:23;95000.31;;;6.31
40245;BMP280;25963;42.694;23.600;2024-03-07T03:00:56;95019.03;;;6.36
40245;BMP280;25963;42.694;23.600;2024-03-07T03:03:22;95017.84;;;6.28
40245;BMP280;25963;42.694;23.600;2024-03-07T03:05:47;95023.78;;;6.23
40245;BMP280;25963;42.694;23.600;2024-03-07T03:08:13;95014.94;;;6.17
40245;BMP280;25963;42.694;23.600;2024-03-07T03:10:39;95022.16;;;6.08
40245;BMP280;25963;42.694;23.600;2024-03-07T03:13:05;94969.25;;;5.62
40245;BMP280;25963;42.694;23.600;2024-03-07T03:15:32;94996.31;;;5.66
40245;BMP280;25963;42.694;23.600;2024-03-07T03:17:57;94996.72;;;5.56
40245;BMP280;25963;42.694;23.600;2024-03-07T03:20:26;95002.19;;;5.52
40245;BMP280;25963;42.694;23.600;2024-03-07T03:22:59;95022.94;;;5.54
40245;BMP280;25963;42.694;23.600;2024-03-07T03:25:25;95026.16;;;5.49
40245;BMP280;25963;42.694;23.600;2024-03-07T03:27:51;95019.97;;;5.34
40245;BMP280;25963;42.694;23.600;2024-03-07T03:30:17;95019.50;;;5.26
40245;BMP280;25963;42.694;23.600;2024-03-07T03:32:47;94997.84;;;5.09
40245;BMP280;25963;42.694;23.600;2024-03-07T03:35:13;95017.28;;;5.16
40245;BMP280;25963;42.694;23.600;2024-03-07T03:37:44;95020.72;;;4.94
40245;BMP280;25963;42.694;23.600;2024-03-07T03:40:11;95029.00;;;4.96
40245;BMP280;25963;42.694;23.600;2024-03-07T03:42:38;95030.59;;;4.94
40245;BMP280;25963;42.694;23.600;2024-03-07T03:45:05;95025.72;;;4.92
40245;BMP280;25963;42.694;23.600;2024-03-07T03:47:35;95035.56;;;4.92
40245;BMP280;25963;42.694;23.600;2024-03-07T03:50:07;95003.66;;;4.77
40245;BMP280;25963;42.694;23.600;2024-03-07T03:52:33;95026.75;;;4.95
40245;BMP280;25963;42.694;23.600;2024-03-07T03:55:01;95019.13;;;4.97
40245;BMP280;25963;42.694;23.600;2024-03-07T03:57:27;95017.38;;;4.94
40245;BMP280;25963;42.694;23.600;2024-03-07T03:59:53;95009.72;;;4.87
40245;BMP280;25963;42.694;23.600;2024-03-07T04:02:20;95006.56;;;4.70
40245;BMP280;25963;42.694;23.600;2024-03-07T04:04:47;94979.16;;;4.46
40245;BMP280;25963;42.694;23.600;2024-03-07T04:07:13;95050.38;;;4.89
40245;BMP280;25963;42.694;23.600;2024-03-07T04:09:39;95063.03;;;4.94
40245;BMP280;25963;42.694;23.600;2024-03-07T04:12:04;95024.84;;;4.86
40245;BMP280;25963;42.694;23.600;2024-03-07T04:14:30;94999.25;;;4.83
40245;BMP280;25963;42.694;23.600;2024-03-07T04:16:58;95008.22;;;4.86
40245;BMP280;25963;42.694;23.600;2024-03-07T04:19:23;95018.34;;;4.78
40245;BMP280;25963;42.694;23.600;2024-03-07T04:21:49;95013.63;;;4.73
40245;BMP280;25963;42.694;23.600;2024-03-07T04:24:14;95009.66;;;4.69
40245;BMP280;25963;42.694;23.600;2024-03-07T04:26:40;95015.25;;;4.71
40245;BMP280;25963;42.694;23.600;2024-03-07T04:29:08;95004.19;;;4.72
40245;BMP280;25963;42.694;23.600;2024-03-07T04:31:36;94995.94;;;4.61
40245;BMP280;25963;42.694;23.600;2024-03-07T04:34:02;95008.78;;;4.72
40245;BMP280;25963;42.694;23.600;2024-03-07T04:36:27;94940.16;;;4.28
40245;BMP280;25963;42.694;23.600;2024-03-07T04:38:54;94984.31;;;4.59
40245;BMP280;25963;42.694;23.600;2024-03-07T04:41:20;94979.44;;;4.48
40245;BMP280;25963;42.694;23.600;2024-03-07T04:43:45;95002.88;;;4.68
40245;BMP280;25963;42.694;23.600;2024-03-07T04:46:10;95007.44;;;4.67
40245;BMP280;25963;42.694;23.600;2024-03-07T04:48:36;94994.22;;;4.67
40245;BMP280;25963;42.694;23.600;2024-03-07T04:51:02;94960.78;;;4.42
40245;BMP280;25963;42.694;23.600;2024-03-07T04:53:28;94998.34;;;4.68
40245;BMP280;25963;42.694;23.600;2024-03-07T04:55:53;94991.28;;;4.65
40245;BMP280;25963;42.694;23.600;2024-03-07T04:58:19;94978.22;;;4.40
40245;BMP280;25963;42.694;23.600;2024-03-07T05:00:44;95000.75;;;4.54
40245;BMP280;25963;42.694;23.600;2024-03-07T05:03:10;94996.50;;;4.56
40245;BMP280;25963;42.694;23.600;2024-03-07T05:05:36;94999.47;;;4.58
40245;BMP280;25963;42.694;23.600;2024-03-07T05:08:02;95004.44;;;4.56
40245;BMP280;25963;42.694;23.600;2024-03-07T05:10:29;95004.44;;;4.56
40245;BMP280;25963;42.694;23.600;2024-03-07T05:12:56;95006.50;;;4.61
40245;BMP280;25963;42.694;23.600;2024-03-07T05:15:24;95021.94;;;4.63
40245;BMP280;25963;42.694;23.600;2024-03-07T05:17:51;95025.00;;;4.61
40245;BMP280;25963;42.694;23.600;2024-03-07T05:20:17;95012.53;;;4.53
40245;BMP280;25963;42.694;23.600;2024-03-07T05:22:42;95025.34;;;4.63
40245;BMP280;25963;42.694;23.600;2024-03-07T05:25:09;94987.38;;;4.48
40245;BMP280;25963;42.694;23.600;2024-03-07T05:27:35;95040.00;;;4.64
40245;BMP280;25963;42.694;23.600;2024-03-07T05:30:03;95037.69;;;4.66
40245;BMP280;25963;42.694;23.600;2024-03-07T05:32:31;95038.13;;;4.65
40245;BMP280;25963;42.694;23.600;2024-03-07T05:34:56;95045.19;;;4.68
40245;BMP280;25963;42.694;23.600;2024-03-07T05:37:22;95051.63;;;4.67
40245;BMP280;25963;42.694;23.600;2024-03-07T05:39:49;95040.63;;;4.68
40245;BMP280;25963;42.694;23.600;2024-03-07T05:42:14;95014.84;;;4.51
40245;BMP280;25963;42.694;23.600;2024-03-07T05:44:42;95033.44;;;4.69
40245;BMP280;25963;42.694;23.600;2024-03-07T05:47:08;94988.50;;;4.38
40245;BMP280;25963;42.694;23.600;2024-03-07T05:49:34;95031.22;;;4.67
40245;BMP280;25963;42.694;23.600;2024-03-07T05:52:00;95031.81;;;4.71
40245;BMP280;25963;42.694;23.600;2024-03-07T05:54:25;95035.06;;;4.75
40245;BMP280;25963;42.694;23.600;2024-03-07T05:56:51;95029.63;;;4.70
40245;BMP280;25963;42.694;23.600;2024-03-07T05:59:16;94986.78;;;4.44
40245;BMP280;25963;42.694;23.600;2024-03-07T06:01:42;95031.25;;;4.76
40245;BMP280;25963;42.694;23.600;2024-03-07T06:04:09;95017.16;;;4.70
40245;BMP280;25963;42.694;23.600;2024-03-07T06:06:36;95025.09;;;4.79
40245;BMP280;25963;42.694;23.600;2024-03-07T06:09:03;95034.06;;;4.82
40245;BMP280;25963;42.694;23.600;2024-03-07T06:11:38;95040.69;;;4.86
40245;BMP280;25963;42.694;23.600;2024-03-07T06:14:08;95048.03;;;4.91
40245;BMP280;25963;42.694;23.600;2024-03-07T06:16:37;94942.22;;;4.24
40245;BMP280;25963;42.694;23.600;2024-03-07T06:19:04;94971.69;;;4.54
40245;BMP280;25963;42.694;23.600;2024-03-07T06:21:30;95019.00;;;5.00
40245;BMP280;25963;42.694;23.600;2024-03-07T06:23:56;95029.47;;;5.13
40245;BMP280;25963;42.694;23.600;2024-03-07T06:26:29;95047.59;;;5.33
40245;BMP280;25963;42.694;23.600;2024-03-07T06:29:13;94983.34;;;5.05
40245;BMP280;25963;42.694;23.600;2024-03-07T06:31:41;95034.09;;;5.49
40245;BMP280;25963;42.694;23.600;2024-03-07T06:34:07;95030.28;;;5.50
40245;BMP280;25963;42.694;23.600;2024-03-07T06:36:33;95029.25;;;5.56
40245;BMP280;25963;42.694;23.600;2024-03-07T06:38:59;95048.22;;;5.64
40245;BMP280;25963;42.694;23.600;2024-03-07T06:41:24;95040.44;;;5.69
40245;BMP280;25963;42.694;23.600;2024-03-07T06:43:50;94983.91;;;5.27
40245;BMP280;25963;42.694;23.600;2024-03-07T06:46:16;95009.09;;;5.50
40245;BMP280;25963;42.694;23.600;2024-03-07T06:48:42;95052.94;;;5.87
40245;BMP280;25963;42.694;23.600;2024-03-07T06:51:08;95023.53;;;5.76
40245;BMP280;25963;42.694;23.600;2024-03-07T06:53:33;94973.22;;;5.49
40245;BMP280;25963;42.694;23.600;2024-03-07T06:55:59;95065.72;;;6.16
40245;BMP280;25963;42.694;23.600;2024-03-07T06:58:25;95067.66;;;6.06
40245;BMP280;25963;42.694;23.600;2024-03-07T07:00:51;95060.56;;;5.85
40245;BMP280;25963;42.694;23.600;2024-03-07T07:03:20;95085.75;;;5.80
40245;BMP280;25963;42.694;23.600;2024-03-07T07:05:45;95090.63;;;5.82
40245;BMP280;25963;42.694;23.600;2024-03-07T07:08:11;95080.03;;;5.82
40245;BMP280;25963;42.694;23.600;2024-03-07T07:10:39;95069.84;;;5.71
40245;BMP280;25963;42.694;23.600;2024-03-07T07:13:06;95067.38;;;5.68
40245;BMP280;25963;42.694;23.600;2024-03-07T07:15:31;95067.94;;;5.63
40245;BMP280;25963;42.694;23.600;2024-03-07T07:17:57;95087.34;;;5.60
40245;BMP280;25963;42.694;23.600;2024-03-07T07:20:22;95092.66;;;5.69
40245;BMP280;25963;42.694;23.600;2024-03-07T07:22:49;95086.91;;;5.61
40245;BMP280;25963;42.694;23.600;2024-03-07T07:25:14;95079.88;;;5.76
40245;BMP280;25963;42.694;23.600;2024-03-07T07:27:48;95079.25;;;5.72
40245;BMP280;25963;42.694;23.600;2024-03-07T07:30:19;95084.59;;;5.82
40245;BMP280;25963;42.694;23.600;2024-03-07T07:32:48;95076.03;;;5.87
40245;BMP280;25963;42.694;23.600;2024-03-07T07:35:13;95065.59;;;5.83
40245;BMP280;25963;42.694;23.600;2024-03-07T07:37:45;95060.31;;;5.83
40245;BMP280;25963;42.694;23.600;2024-03-07T07:40:13;95057.19;;;5.94
40245;BMP280;25963;42.694;23.600;2024-03-07T07:42:43;95052.94;;;5.96
40245;BMP280;25963;42.694;23.600;2024-03-07T07:45:09;95046.91;;;5.96
40245;BMP280;25963;42.694;23.600;2024-03-07T07:47:42;95042.03;;;5.85
40245;BMP280;25963;42.694;23.600;2024-03-07T07:50:09;94994.09;;;5.56
40245;BMP280;25963;42.694;23.600;2024-03-07T07:52:57;95055.16;;;5.98
40245;BMP280;25963;42.694;23.600;2024-03-07T07:55:27;95075.75;;;6.03
40245;BMP280;25963;42.694;23.600;2024-03-07T08:00:20;95084.44;;;6.03
40245;BMP280;25963;42.694;23.600;2024-03-07T08:02:53;95083.25;;;5.95
40245;BMP280;25963;42.694;23.600;2024-03-07T08:05:20;95077.09;;;5.98
40245;BMP280;25963;42.694;23.600;2024-03-07T08:07:48;95071.78;;;5.98
40245;BMP280;25963;42.694;23.600;2024-03-07T08:10:14;95072.34;;;6.02
40245;BMP280;25963;42.694;23.600;2024-03-07T08:12:41;95068.53;;;6.03
40245;BMP280;25963;42.694;23.600;2024-03-07T08:15:12;95064.56;;;6.08
40245;BMP280;25963;42.694;23.600;2024-03-07T08:17:40;95065.00;;;6.15
40245;BMP280;25963;42.694;23.600;2024-03-07T08:20:06;95038.81;;;6.08
40245;BMP280;25963;42.694;23.600;2024-03-07T08:22:37;95068.78;;;6.32
40245;BMP280;25963;42.694;23.600;2024-03-07T08:25:02;95044.03;;;6.44
40245;BMP280;25963;42.694;23.600;2024-03-07T08:27:35;95014.00;;;6.29
40245;BMP280;25963;42.694;23.600;2024-03-07T08:30:00;95048.97;;;6.70
40245;BMP280;25963;42.694;23.600;2024-03-07T08:32:26;95035.97;;;6.72
40245;BMP280;25963;42.694;23.600;2024-03-07T08:34:51;95057.13;;;6.90
40245;BMP280;25963;42.694;23.600;2024-03-07T08:37:17;95065.19;;;6.95
40245;BMP280;25963;42.694;23.600;2024-03-07T08:39:42;95025.50;;;6.68
40245;BMP280;25963;42.694;23.600;2024-03-07T08:42:08;95079.44;;;7.07
40245;BMP280;25963;42.694;23.600;2024-03-07T08:44:33;95067.13;;;6.95
40245;BMP280;25963;42.694;23.600;2024-03-07T08:46:58;95075.50;;;7.02
40245;BMP280;25963;42.694;23.600;2024-03-07T08:49:24;95093.53;;;7.22
40245;BMP280;25963;42.694;23.600;2024-03-07T08:51:50;95082.09;;;7.07
40245;BMP280;25963;42.694;23.600;2024-03-07T08:54:15;95107.16;;;7.15
40245;BMP280;25963;42.694;23.600;2024-03-07T08:56:40;95097.97;;;7.16
40245;BMP280;25963;42.694;23.600;2024-03-07T08:59:06;95070.69;;;6.92
40245;BMP280;25963;42.694;23.600;2024-03-07T09:01:31;95104.50;;;7.15
40245;BMP280;25963;42.694;23.600;2024-03-07T09:03:57;95106.22;;;7.18
40245;BMP280;25963;42.694;23.600;2024-03-07T09:06:24;95096.72;;;7.35
40245;BMP280;25963;42.694;23.600;2024-03-07T09:08:49;95101.69;;;7.42
40245;BMP280;25963;42.694;23.600;2024-03-07T09:11:15;95101.91;;;7.53
40245;BMP280;25963;42.694;23.600;2024-03-07T09:13:41;95099.31;;;7.68
40245;BMP280;25963;42.694;23.600;2024-03-07T09:16:07;95091.63;;;7.70
40245;BMP280;25963;42.694;23.600;2024-03-07T09:18:32;95108.19;;;7.88
40245;BMP280;25963;42.694;23.600;2024-03-07T09:20:58;95097.28;;;8.01
40245;BMP280;25963;42.694;23.600;2024-03-07T09:23:23;95087.75;;;7.94
40245;BMP280;25963;42.694;23.600;2024-03-07T09:25:48;95100.22;;;8.03
40245;BMP280;25963;42.694;23.600;2024-03-07T09:28:14;95102.44;;;8.05
40245;BMP280;25963;42.694;23.600;2024-03-07T09:30:40;95107.56;;;8.08
40245;BMP280;25963;42.694;23.600;2024-03-07T09:33:06;95099.50;;;8.17
40245;BMP280;25963;42.694;23.600;2024-03-07T09:35:36;95083.75;;;8.14
40245;BMP280;25963;42.694;23.600;2024-03-07T09:38:02;95091.75;;;8.14
40245;BMP280;25963;42.694;23.600;2024-03-07T09:40:28;95096.00;;;8.11
40245;BMP280;25963;42.694;23.600;2024-03-07T09:42:53;95097.97;;;8.11
40245;BMP280;25963;42.694;23.600;2024-03-07T09:45:22;95050.84;;;7.73
40245;BMP280;25963;42.694;23.600;2024-03-07T09:47:49;95110.84;;;8.03
40245;BMP280;25963;42.694;23.600;2024-03-07T09:50:17;95094.28;;;7.93
40245;BMP280;25963;42.694;23.600;2024-03-07T09:52:49;95066.53;;;7.71
40245;BMP280;25963;42.694;23.600;2024-03-07T09:55:16;95107.91;;;8.01
40245;BMP280;25963;42.694;23.600;2024-03-07T09:57:42;95051.38;;;7.62
40245;BMP280;25963;42.694;23.600;2024-03-07T10:00:09;95107.03;;;8.04
40245;BMP280;25963;42.694;23.600;2024-03-07T10:02:44;95107.75;;;8.05
40245;BMP280;25963;42.694;23.600;2024-03-07T10:05:11;95110.16;;;8.03
40245;BMP280;25963;42.694;23.600;2024-03-07T10:07:39;95104.41;;;7.95
40245;BMP280;25963;42.694;23.600;2024-03-07T10:10:05;95109.72;;;7.95
40245;BMP280;25963;42.694;23.600;2024-03-07T10:12:35;95110.66;;;7.92
40245;BMP280;25963;42.694;23.600;2024-03-07T10:15:03;95092.66;;;7.87
40245;BMP280;25963;42.694;23.600;2024-03-07T10:17:30;95091.94;;;7.86
40245;BMP280;25963;42.694;23.600;2024-03-07T10:19:58;95085.69;;;7.75
40245;BMP280;25963;42.694;23.600;2024-03-07T10:22:26;95092.66;;;7.72
40245;BMP280;25963;42.694;23.600;2024-03-07T10:24:56;95090.19;;;7.83
40245;BMP280;25963;42.694;23.600;2024-03-07T10:27:22;95103.75;;;7.85
40245;BMP280;25963;42.694;23.600;2024-03-07T10:29:48;95090.81;;;7.78
40245;BMP280;25963;42.694;23.600;2024-03-07T10:32:25;95100.13;;;7.83
40245;BMP280;25963;42.694;23.600;2024-03-07T10:34:51;95093.94;;;7.77
40245;BMP280;25963;42.694;23.600;2024-03-07T10:37:17;95093.44;;;7.64
40245;BMP280;25963;42.694;23.600;2024-03-07T10:39:44;95089.44;;;7.68
40245;BMP280;25963;42.694;23.600;2024-03-07T10:42:13;95091.06;;;7.66
40245;BMP280;25963;42.694;23.600;2024-03-07T10:44:43;95079.03;;;7.56
40245;BMP280;25963;42.694;23.600;2024-03-07T10:47:15;95095.63;;;7.65
40245;BMP280;25963;42.694;23.600;2024-03-07T10:49:57;95074.16;;;7.54
40245;BMP280;25963;42.694;23.600;2024-03-07T10:52:48;95095.03;;;7.70
40245;BMP280;25963;42.694;23.600;2024-03-07T10:57:51;95093.88;;;7.62
40245;BMP280;25963;42.694;23.600;2024-03-07T11:00:26;95084.72;;;7.63
40245;BMP280;25963;42.694;23.600;2024-03-07T11:02:56;95079.06;;;7.70
40245;BMP280;25963;42.694;23.600;2024-03-07T11:05:27;95071.09;;;7.70
40245;BMP280;25963;42.694;23.600;2024-03-07T11:07:58;95078.56;;;7.81
40245;BMP280;25963;42.694;23.600;2024-03-07T11:10:26;95063.88;;;7.71
40245;BMP280;25963;42.694;23.600;2024-03-07T11:12:52;95079.28;;;7.81
40245;BMP280;25963;42.694;23.600;2024-03-07T11:15:19;95064.81;;;7.82
40245;BMP280;25963;42.694;23.600;2024-03-07T11:17:48;95064.81;;;7.82
40245;BMP280;25963;42.694;23.600;2024-03-07T11:22:46;95075.69;;;7.70
40245;BMP280;25963;42.694;23.600;2024-03-07T11:25:11;95084.38;;;7.70
40245;BMP280;25963;42.694;23.600;2024-03-07T11:27:37;95072.59;;;7.71
40245;BMP280;25963;42.694;23.600;2024-03-07T11:30:08;95072.53;;;7.80
40245;BMP280;25963;42.694;23.600;2024-03-07T11:32:35;95083.97;;;7.72
40245;BMP280;25963;42.694;23.600;2024-03-07T11:35:04;95058.50;;;7.56
40245;BMP280;25963;42.694;23.600;2024-03-07T11:37:44;95065.56;;;7.59
40245;BMP280;25963;42.694;23.600;2024-03-07T11:42:50;95078.91;;;7.50
40245;BMP280;25963;42.694;23.600;2024-03-07T11:45:18;95027.34;;;7.18
40245;BMP280;25963;42.694;23.600;2024-03-07T11:48:00;95078.63;;;7.48
40245;BMP280;25963;42.694;23.600;2024-03-07T11:50:32;95071.06;;;7.56
40245;BMP280;25963;42.694;23.600;2024-03-07T11:53:00;95061.25;;;7.47
40245;BMP280;25963;42.694;23.600;2024-03-07T11:55:26;95075.56;;;7.50
40245;BMP280;25963;42.694;23.600;2024-03-07T11:57:53;95008.66;;;7.13
40245;BMP280;25963;42.694;23.600;2024-03-07T12:00:19;95031.69;;;7.31
40245;BMP280;25963;42.694;23.600;2024-03-07T12:02:46;95066.94;;;7.55
40245;BMP280;25963;42.694;23.600;2024-03-07T12:05:14;95065.75;;;7.56
40245;BMP280;25963;42.694;23.600;2024-03-07T12:07:43;95045.31;;;7.47
40245;BMP280;25963;42.694;23.600;2024-03-07T12:10:09;95059.25;;;7.57
40245;BMP280;25963;42.694;23.600;2024-03-07T12:12:35;95062.28;;;7.64
40245;BMP280;25963;42.694;23.600;2024-03-07T12:15:04;95051.75;;;7.55
40245;BMP280;25963;42.694;23.600;2024-03-07T12:17:35;95059.31;;;7.71
40245;BMP280;25963;42.694;23.600;2024-03-07T12:20:00;95046.91;;;7.68
40245;BMP280;25963;42.694;23.600;2024-03-07T12:22:44;95050.06;;;7.81
40245;BMP280;25963;42.694;23.600;2024-03-07T12:25:10;95063.81;;;7.80
40245;BMP280;25963;42.694;23.600;2024-03-07T12:27:36;95055.25;;;7.76
40245;BMP280;25963;42.694;23.600;2024-03-07T12:30:14;95052.06;;;7.86
40245;BMP280;25963;42.694;23.600;2024-03-07T12:32:47;95046.22;;;7.82
40245;BMP280;25963;42.694;23.600;2024-03-07T12:35:13;95014.16;;;7.48
40245;BMP280;25963;42.694;23.600;2024-03-07T12:37:39;95021.13;;;7.45
40245;BMP280;25963;42.694;23.600;2024-03-07T12:40:11;95045.16;;;7.65
40245;BMP280;25963;42.694;23.600;2024-03-07T12:42:46;95045.69;;;7.55
40245;BMP280;25963;42.694;23.600;2024-03-07T12:45:11;95037.78;;;7.46
40245;BMP280;25963;42.694;23.600;2024-03-07T12:47:48;94998.94;;;7.10
40245;BMP280;25963;42.694;23.600;2024-03-07T12:50:18;95037.97;;;7.42
40245;BMP280;25963;42.694;23.600;2024-03-07T12:52:48;95011.25;;;7.22
40245;BMP280;25963;42.694;23.600;2024-03-07T12:55:17;95055.00;;;7.50
40245;BMP280;25963;42.694;23.600;2024-03-07T12:57:52;95049.97;;;7.52
40245;BMP280;25963;42.694;23.600;2024-03-07T13:00:19;95051.75;;;7.55
40245;BMP280;25963;42.694;23.600;2024-03-07T13:02:46;95047.88;;;7.56
40245;BMP280;25963;42.694;23.600;2024-03-07T13:05:12;95047.16;;;7.56
40245;BMP280;25963;42.694;23.600;2024-03-07T13:07:47;95054.31;;;7.64
40245;BMP280;25963;42.694;23.600;2024-03-07T13:10:14;95055.78;;;7.65
40245;BMP280;25963;42.694;23.600;2024-03-07T13:12:48;95047.66;;;7.69
40245;BMP280;25963;42.694;23.600;2024-03-07T13:15:20;95031.06;;;7.59
40245;BMP280;25963;42.694;23.600;2024-03-07T13:17:47;95042.63;;;7.71
40245;BMP280;25963;42.694;23.600;2024-03-07T13:20:17;95013.00;;;7.49
40245;BMP280;25963;42.694;23.600;2024-03-07T13:22:47;95041.13;;;7.55
40245;BMP280;25963;42.694;23.600;2024-03-07T13:25:16;95045.16;;;7.65
40245;BMP280;25963;42.694;23.600;2024-03-07T13:27:56;95045.00;;;7.69
40245;BMP280;25963;42.694;23.600;2024-03-07T13:30:23;95054.50;;;7.75
40245;BMP280;25963;42.694;23.600;2024-03-07T13:32:53;95051.97;;;7.81
40245;BMP280;25963;42.694;23.600;2024-03-07T13:35:19;95027.94;;;7.75
40245;BMP280;25963;42.694;23.600;2024-03-07T13:37:46;95038.69;;;7.81
40245;BMP280;25963;42.694;23.600;2024-03-07T13:40:12;95033.72;;;7.74
40245;BMP280;25963;42.694;23.600;2024-03-07T13:42:59;95028.28;;;7.54
40245;BMP280;25963;42.694;23.600;2024-03-07T13:45:30;95044.25;;;7.68
40245;BMP280;25963;42.694;23.600;2024-03-07T13:48:14;94932.38;;;6.99
40245;BMP280;25963;42.694;23.600;2024-03-07T13:50:42;95022.00;;;7.66
40245;BMP280;25963;42.694;23.600;2024-03-07T13:53:10;95038.06;;;7.71
40245;BMP280;25963;42.694;23.600;2024-03-07T13:56:14;95040.06;;;7.76
40245;BMP280;25963;42.694;23.600;2024-03-07T14:01:48;95025.88;;;7.79
40245;BMP280;25963;42.694;23.600;2024-03-07T14:27:25;95043.78;;;7.55
40245;BMP280;25963;42.694;23.600;2024-03-07T14:30:40;95049.38;;;7.57
40245;BMP280;25963;42.694;23.600;2024-03-07T14:33:05;95022.44;;;7.26
40245;BMP280;25963;42.694;23.600;2024-03-07T14:40:39;95003.28;;;6.98
40245;BMP280;25963;42.694;23.600;2024-03-07T14:43:04;94991.38;;;6.94
40245;BMP280;25963;42.694;23.600;2024-03-07T14:45:36;95006.66;;;6.99
40245;BMP280;25963;42.694;23.600;2024-03-07T14:48:02;95043.94;;;7.28
40245;BMP280;25963;42.694;23.600;2024-03-07T14:50:30;95067.75;;;7.46
40245;BMP280;25963;42.694;23.600;2024-03-07T14:52:58;95061.13;;;7.42